Time;durP1;ratioP1;P1;durP2;ratioP2;P2;SDS_P1;SDS_P2;PMS_P1;PMS_P2;Temp;Humidity;BMP_temperature;BMP_pressure;BME280_temperature;BME280_humidity;BME280_pressure;Samples;Min_cycle;Max_cycle;Signal;HPM_P1;HPM_P2
2022/03/27 00:01:13;;;;;;;5.43;2.83;;;7.70;99.90;;;;;;5054707;28;20068;-85
2022/03/27 00:03:41;;;;;;;9.02;2.35;;;7.70;99.90;;;;;;5037508;28;20053;-85
2022/03/27 00:06:07;;;;;;;2.88;2.10;;;7.70;99.90;;;;;;5056547;28;20052;-85
2022/03/27 00:08:33;;;;;;;5.30;2.20;;;7.70;99.90;;;;;;5070761;28;20041;-86
2022/03/27 00:13:43;;;;;;;3.30;2.13;;;7.60;99.90;;;;;;5066377;28;20115;-86
2022/03/27 00:16:09;;;;;;;4.00;2.17;;;7.60;99.90;;;;;;5049984;28;20039;-85
2022/03/27 00:18:36;;;;;;;2.57;1.60;;;7.60;99.90;;;;;;5070035;28;20136;-85
2022/03/27 00:21:05;;;;;;;3.67;2.30;;;7.60;99.90;;;;;;5043559;28;20044;-85
2022/03/27 00:23:35;;;;;;;5.95;2.00;;;7.70;99.90;;;;;;5047177;28;20407;-86
2022/03/27 00:26:01;;;;;;;6.10;2.55;;;7.70;99.90;;;;;;5068626;28;20056;-85
2022/03/27 00:28:32;;;;;;;2.47;1.70;;;7.60;99.90;;;;;;5080153;28;20368;-90
2022/03/27 00:31:04;;;;;;;2.75;2.20;;;7.30;99.90;;;;;;5054149;28;20044;-85
2022/03/27 00:33:34;;;;;;;1.83;1.67;;;6.60;99.90;;;;;;5086767;28;20059;-86
2022/03/27 00:36:01;;;;;;;3.28;2.17;;;7.60;99.90;;;;;;5050633;28;20049;-85
2022/03/27 00:38:27;;;;;;;;;;;6.90;99.90;;;;;;5083738;28;20068;-85
2022/03/27 00:40:54;;;;;;;2.72;1.65;;;6.60;99.90;;;;;;5041250;28;19980;-85
2022/03/27 00:43:20;;;;;;;3.65;2.67;;;7.20;99.90;;;;;;5081508;28;20500;-85
2022/03/27 00:45:49;;;;;;;2.67;2.47;;;7.50;99.90;;;;;;5035304;28;20036;-85
2022/03/27 00:48:18;;;;;;;2.92;2.42;;;7.40;99.90;;;;;;5080030;28;20036;-85
2022/03/27 00:50:54;;;;;;;5.32;2.83;;;7.40;99.90;;;;;;5052902;28;20049;-85
2022/03/27 00:53:23;;;;;;;4.50;2.83;;;8.10;99.90;;;;;;5080398;28;20059;-85
2022/03/27 00:55:49;;;;;;;4.75;3.30;;;7.40;99.90;;;;;;5041029;28;20091;-85
2022/03/27 00:58:16;;;;;;;5.75;3.33;;;7.40;99.90;;;;;;5081861;28;20383;-85
2022/03/27 01:00:49;;;;;;;7.38;5.38;;;7.30;99.90;;;;;;5056619;28;20052;-85
2022/03/27 01:03:18;;;;;;;4.93;3.63;;;7.80;99.90;;;;;;5056430;28;20037;-85
2022/03/27 01:05:45;;;;;;;7.03;3.08;;;7.30;99.90;;;;;;5071010;28;20040;-85
2022/03/27 01:08:12;;;;;;;9.40;3.95;;;6.50;99.90;;;;;;5065268;28;20036;-85
2022/03/27 01:10:39;;;;;;;5.57;3.10;;;7.30;99.90;;;;;;5086375;28;20687;-85
2022/03/27 01:13:25;;;;;;;5.28;3.53;;;7.30;99.90;;;;;;5071214;28;20049;-85
2022/03/27 01:15:57;;;;;;;6.20;3.45;;;7.30;99.90;;;;;;5042081;28;20056;-85
2022/03/27 01:18:23;;;;;;;6.82;4.00;;;7.20;99.90;;;;;;5063305;28;20124;-85
2022/03/27 01:20:49;;;;;;;4.55;2.72;;;7.30;99.90;;;;;;5090233;28;20094;-85
2022/03/27 01:23:16;;;;;;;6.90;3.30;;;7.30;99.90;;;;;;5072390;28;20119;-85
2022/03/27 01:25:44;;;;;;;7.18;2.92;;;7.30;99.90;;;;;;5054955;28;20052;-85
2022/03/27 01:28:12;;;;;;;5.00;2.83;;;7.30;99.90;;;;;;5070100;28;20048;-85
2022/03/27 01:30:39;;;;;;;6.60;3.33;;;7.70;99.90;;;;;;5088991;28;20055;-87
2022/03/27 01:33:05;;;;;;;;;;;7.20;99.90;;;;;;5058012;28;20418;-85
2022/03/27 01:35:32;;;;;;;4.78;3.03;;;7.20;99.90;;;;;;5059859;28;19928;-85
2022/03/27 01:37:58;;;;;;;3.97;2.90;;;7.10;99.90;;;;;;5039420;28;20037;-85
2022/03/27 01:40:24;;;;;;;7.57;3.33;;;7.10;99.90;;;;;;5076771;28;20524;-85
2022/03/27 01:42:53;;;;;;;4.33;2.77;;;7.10;99.90;;;;;;5057938;28;20127;-85
2022/03/27 01:45:19;;;;;;;5.72;3.22;;;7.00;99.90;;;;;;5073695;28;20048;-85
2022/03/27 01:47:45;;;;;;;5.10;3.50;;;7.00;99.90;;;;;;5072761;28;20041;-86
2022/03/27 01:50:11;;;;;;;10.03;4.13;;;7.00;99.90;;;;;;5045669;28;20047;-85
2022/03/27 01:52:39;;;;;;;4.15;2.92;;;6.90;99.90;;;;;;5056163;28;20081;-90
2022/03/27 01:55:16;;;;;;;5.67;3.33;;;7.00;99.90;;;;;;5057923;28;20056;-85
2022/03/27 01:57:42;;;;;;;5.78;3.20;;;6.90;99.90;;;;;;5072643;28;20049;-90
2022/03/27 02:00:14;;;;;;;6.82;3.30;;;6.80;99.90;;;;;;5060185;28;20559;-84
2022/03/27 02:02:40;;;;;;;7.40;4.38;;;6.80;99.90;;;;;;5073604;28;20110;-90
2022/03/27 02:05:07;;;;;;;4.25;3.05;;;6.70;99.90;;;;;;5039646;28;20079;-84
2022/03/27 02:07:43;;;;;;;4.50;2.90;;;6.70;99.90;;;;;;5079465;28;20069;-85
2022/03/27 02:10:09;;;;;;;5.00;2.72;;;6.70;99.90;;;;;;5053995;28;20135;-85
2022/03/27 02:12:35;;;;;;;7.80;3.15;;;6.70;99.90;;;;;;5087484;28;20094;-85
2022/03/27 02:15:04;;;;;;;4.40;3.73;;;6.90;99.90;;;;;;5035396;28;20048;-85
2022/03/27 02:17:33;;;;;;;6.28;2.88;;;6.60;99.90;;;;;;5092408;28;20127;-85
2022/03/27 02:20:00;;;;;;;4.68;2.80;;;6.60;99.90;;;;;;5092877;28;20098;-85
2022/03/27 02:22:28;;;;;;;4.25;3.55;;;6.50;99.90;;;;;;5036497;28;20053;-85
2022/03/27 02:24:54;;;;;;;4.78;3.55;;;6.50;99.90;;;;;;5075381;28;20052;-85
2022/03/27 02:27:23;;;;;;;6.15;3.72;;;6.50;99.90;;;;;;5069154;28;20044;-85
2022/03/27 02:29:48;;;;;;;8.70;3.00;;;6.50;99.90;;;;;;5060363;28;20044;-85
2022/03/27 02:32:16;;;;;;;5.53;3.23;;;6.50;99.90;;;;;;5087760;28;20445;-85
2022/03/27 02:34:42;;;;;;;6.03;2.85;;;6.50;99.90;;;;;;5076195;28;20052;-85
2022/03/27 02:37:08;;;;;;;8.60;3.57;;;6.50;99.90;;;;;;5071303;28;20129;-85
2022/03/27 02:39:34;;;;;;;4.43;3.00;;;6.40;99.90;;;;;;5057342;28;20483;-85
2022/03/27 02:42:00;;;;;;;5.45;3.75;;;6.40;99.90;;;;;;5057209;28;20048;-85
2022/03/27 02:44:26;;;;;;;8.87;3.40;;;6.50;99.90;;;;;;5069225;28;20515;-85
2022/03/27 02:46:51;;;;;;;4.33;3.63;;;6.40;99.90;;;;;;5070312;28;20510;-85
2022/03/27 02:49:20;;;;;;;8.30;3.70;;;6.40;99.90;;;;;;5069757;28;20088;-85
2022/03/27 02:51:49;;;;;;;7.63;3.63;;;5.70;99.90;;;;;;5103675;28;20124;-85
2022/03/27 02:54:18;;;;;;;6.20;3.60;;;6.40;99.90;;;;;;5056025;28;20052;-85
2022/03/27 02:56:44;;;;;;;6.30;3.95;;;7.20;99.90;;;;;;5045998;28;20045;-84
2022/03/27 02:59:10;;;;;;;4.60;3.80;;;6.30;99.90;;;;;;5087349;28;20270;-85
2022/03/27 03:01:36;;;;;;;4.47;3.00;;;6.40;99.90;;;;;;5057651;28;20099;-85
2022/03/27 03:04:02;;;;;;;5.93;3.90;;;6.30;99.90;;;;;;5054997;28;20052;-85
2022/03/27 03:06:31;;;;;;;9.20;3.90;;;6.40;99.90;;;;;;5068925;28;20155;-86
2022/03/27 03:08:57;;;;;;;7.15;3.90;;;6.40;99.90;;;;;;5038383;28;20080;-85
2022/03/27 03:11:22;;;;;;;8.57;4.10;;;6.30;99.90;;;;;;5049536;28;20075;-84
2022/03/27 03:13:50;;;;;;;6.50;4.03;;;6.40;99.90;;;;;;5055696;28;20056;-84
2022/03/27 03:16:16;;;;;;;6.72;4.18;;;6.40;99.90;;;;;;5071531;28;20040;-85
2022/03/27 03:18:43;;;;;;;8.13;4.30;;;6.50;99.90;;;;;;5060131;28;20056;-85
2022/03/27 03:21:12;;;;;;;7.13;4.20;;;6.50;99.90;;;;;;5083382;28;20041;-85
2022/03/27 03:23:38;;;;;;;10.32;3.55;;;6.50;99.90;;;;;;5055054;28;20182;-85
2022/03/27 03:26:06;;;;;;;8.83;3.87;;;7.50;99.90;;;;;;5043521;28;20123;-85
2022/03/27 03:28:35;;;;;;;8.75;3.70;;;7.90;99.90;;;;;;5054343;28;20044;-85
2022/03/27 03:31:01;;;;;;;7.57;4.45;;;6.50;99.90;;;;;;5051458;28;20047;-85
2022/03/27 03:33:27;;;;;;;5.77;3.67;;;6.50;99.90;;;;;;5054928;28;20044;-85
2022/03/27 03:35:52;;;;;;;8.53;4.13;;;6.50;99.90;;;;;;5069674;28;20145;-85
2022/03/27 03:38:18;;;;;;;6.37;3.53;;;6.60;99.90;;;;;;5058187;28;20109;-85
2022/03/27 03:43:46;;;;;;;5.75;3.63;;;6.70;99.90;;;;;;5062309;28;20044;-84
2022/03/27 03:46:12;;;;;;;5.30;3.85;;;6.70;99.90;;;;;;5069630;28;20048;-85
2022/03/27 03:48:37;;;;;;;7.57;4.10;;;6.60;99.90;;;;;;5053959;28;20398;-85
2022/03/27 03:51:03;;;;;;;8.03;3.37;;;6.60;99.90;;;;;;5035577;28;20080;-85
2022/03/27 03:53:29;;;;;;;5.77;3.27;;;6.70;99.90;;;;;;5057741;28;20202;-85
2022/03/27 03:55:55;;;;;;;10.73;3.80;;;6.60;99.90;;;;;;5065519;28;20041;-85
2022/03/27 03:58:21;;;;;;;8.07;3.47;;;6.60;99.90;;;;;;5037701;28;20165;-86
2022/03/27 04:00:50;;;;;;;10.63;3.83;;;6.50;99.90;;;;;;5058174;28;20051;-85
2022/03/27 04:03:15;;;;;;;15.23;4.40;;;6.50;99.90;;;;;;5065941;28;20135;-85
2022/03/27 04:05:51;;;;;;;7.10;4.23;;;6.50;99.90;;;;;;5018480;28;20127;-85
2022/03/27 04:08:18;;;;;;;9.15;3.88;;;7.80;99.90;;;;;;5038025;28;20085;-85
2022/03/27 04:10:44;;;;;;;5.85;3.67;;;6.50;99.90;;;;;;5088081;28;20483;-85
2022/03/27 04:13:10;;;;;;;11.00;3.63;;;6.50;99.90;;;;;;5050926;28;20407;-85
2022/03/27 04:15:37;;;;;;;8.67;4.77;;;6.50;99.90;;;;;;5068167;28;20045;-85
2022/03/27 04:18:06;;;;;;;9.07;5.00;;;7.60;99.90;;;;;;5083235;28;20453;-86
2022/03/27 04:20:32;;;;;;;7.72;3.42;;;6.50;99.90;;;;;;5054382;28;20040;-85
2022/03/27 04:23:03;;;;;;;11.38;4.38;;;6.40;99.90;;;;;;5050597;28;20098;-86
2022/03/27 04:25:29;;;;;;;9.10;4.15;;;6.50;99.90;;;;;;5069424;28;20089;-85
2022/03/27 04:27:55;;;;;;;7.07;5.63;;;6.40;99.90;;;;;;5070411;28;20049;-85
2022/03/27 04:30:21;;;;;;;8.87;4.47;;;6.40;99.90;;;;;;5087365;28;20071;-85
2022/03/27 04:32:52;;;;;;;10.73;4.60;;;6.50;99.90;;;;;;5083296;28;20108;-85
2022/03/27 04:35:18;;;;;;;15.50;4.30;;;6.40;99.90;;;;;;5053854;28;20079;-86
2022/03/27 04:37:46;;;;;;;11.77;5.37;;;6.40;99.90;;;;;;5056288;28;20103;-85
2022/03/27 04:40:13;;;;;;;6.60;4.50;;;6.40;99.90;;;;;;5073386;28;20045;-85
2022/03/27 04:42:40;;;;;;;10.38;5.35;;;6.50;99.90;;;;;;5067994;28;20516;-85
2022/03/27 04:45:07;;;;;;;13.60;4.95;;;6.40;99.90;;;;;;5077555;28;20131;-91
2022/03/27 04:47:34;;;;;;;12.85;5.63;;;6.50;99.90;;;;;;5066698;28;20047;-84
2022/03/27 04:50:00;;;;;;;11.15;5.60;;;6.50;99.90;;;;;;5062318;28;20079;-84
2022/03/27 04:52:26;;;;;;;18.88;6.28;;;6.50;99.90;;;;;;5059564;28;20113;-85
2022/03/27 04:54:52;;;;;;;8.33;5.20;;;6.50;99.90;;;;;;5038010;28;20037;-85
2022/03/27 04:57:18;;;;;;;8.13;4.73;;;6.40;99.90;;;;;;5062629;28;20047;-85
2022/03/27 04:59:43;;;;;;;13.10;5.77;;;6.40;99.90;;;;;;5080950;28;20059;-85
2022/03/27 05:02:09;;;;;;;16.07;4.63;;;6.40;99.90;;;;;;5057949;28;20125;-86
2022/03/27 05:04:37;;;;;;;9.73;5.40;;;6.30;99.90;;;;;;5054288;28;20048;-85
2022/03/27 05:07:04;;;;;;;7.45;4.32;;;6.30;99.90;;;;;;5072926;28;20384;-84
2022/03/27 05:09:33;;;;;;;7.72;4.57;;;6.30;99.90;;;;;;5073286;28;20242;-85
2022/03/27 05:12:01;;;;;;;14.15;4.50;;;6.40;99.90;;;;;;5075041;28;20063;-85
2022/03/27 05:14:27;;;;;;;12.50;5.67;;;6.30;99.90;;;;;;5048294;28;20789;-85
2022/03/27 05:16:53;;;;;;;8.47;4.27;;;6.20;99.90;;;;;;5070606;28;20044;-85
2022/03/27 05:19:19;;;;;;;10.33;5.43;;;6.30;99.90;;;;;;5077168;28;20072;-85
2022/03/27 05:21:45;;;;;;;17.50;4.97;;;6.20;99.90;;;;;;5073606;28;20049;-85
2022/03/27 05:24:13;;;;;;;15.50;6.73;;;6.20;99.90;;;;;;5055541;28;20041;-90
2022/03/27 05:26:39;;;;;;;13.85;6.93;;;6.20;99.90;;;;;;5056942;28;20090;-85
2022/03/27 05:29:06;;;;;;;10.73;5.07;;;6.20;99.90;;;;;;5063044;28;20045;-85
2022/03/27 05:31:32;;;;;;;14.25;6.03;;;6.30;99.90;;;;;;5056995;28;20513;-84
2022/03/27 05:33:58;;;;;;;15.00;5.77;;;6.30;99.90;;;;;;5098614;28;20498;-84
2022/03/27 05:36:24;;;;;;;13.30;5.13;;;7.20;99.90;;;;;;5056741;28;20045;-85
2022/03/27 05:38:50;;;;;;;11.07;4.95;;;6.30;99.90;;;;;;5064284;28;20059;-85
2022/03/27 05:41:16;;;;;;;11.37;5.17;;;6.40;99.90;;;;;;5073113;28;20364;-85
2022/03/27 05:43:48;;;;;;;12.85;6.10;;;6.30;99.90;;;;;;5069331;28;20135;-85
2022/03/27 05:46:14;;;;;;;10.65;5.07;;;7.00;99.90;;;;;;5060994;28;20135;-90
2022/03/27 05:48:40;;;;;;;9.47;6.37;;;6.20;99.90;;;;;;5073601;28;20127;-85
2022/03/27 05:51:08;;;;;;;11.32;5.30;;;6.20;99.90;;;;;;5074172;28;20044;-85
2022/03/27 05:53:34;;;;;;;12.17;5.00;;;6.60;99.90;;;;;;5054724;28;20224;-85
2022/03/27 05:56:00;;;;;;;9.03;4.17;;;6.20;99.90;;;;;;5040202;28;20053;-84
2022/03/27 05:58:25;;;;;;;10.87;4.67;;;6.10;99.90;;;;;;5048649;28;20049;-85
2022/03/27 06:00:52;;;;;;;14.27;5.87;;;6.10;99.90;;;;;;5070247;28;20469;-85
2022/03/27 06:03:18;;;;;;;9.35;5.32;;;6.10;99.90;;;;;;5050137;28;20128;-86
2022/03/27 06:05:43;;;;;;;10.00;4.90;;;6.10;99.90;;;;;;5053298;28;20131;-84
2022/03/27 06:08:09;;;;;;;11.73;4.70;;;6.00;99.90;;;;;;5067196;28;20048;-85
2022/03/27 06:10:38;;;;;;;5.93;4.03;;;6.40;99.90;;;;;;5052730;28;20041;-85
2022/03/27 06:13:06;;;;;;;10.45;5.40;;;6.10;99.90;;;;;;5071177;28;20439;-85
2022/03/27 06:15:33;;;;;;;11.48;5.32;;;6.10;99.90;;;;;;5060998;28;20436;-85
2022/03/27 06:18:02;;;;;;;8.57;4.50;;;6.10;99.90;;;;;;5052801;28;20044;-84
2022/03/27 06:20:30;;;;;;;13.70;4.95;;;6.20;99.90;;;;;;5059948;28;20044;-85
2022/03/27 06:22:57;;;;;;;6.90;4.53;;;6.60;99.90;;;;;;5055000;28;20052;-85
2022/03/27 06:25:27;;;;;;;12.23;5.28;;;6.30;99.90;;;;;;5066742;28;20123;-85
2022/03/27 06:27:56;;;;;;;8.13;4.28;;;6.40;99.90;;;;;;5078778;28;20036;-85
2022/03/27 06:30:33;;;;;;;10.88;5.07;;;6.50;99.90;;;;;;5049809;28;20131;-84
2022/03/27 06:33:00;;;;;;;9.45;4.38;;;6.70;99.90;;;;;;5070919;28;20052;-84
2022/03/27 06:35:27;;;;;;;11.25;5.82;;;6.40;99.90;;;;;;5059350;28;20049;-85
2022/03/27 06:37:56;;;;;;;12.13;5.80;;;6.40;99.90;;;;;;5084753;28;20067;-85
2022/03/27 06:40:21;;;;;;;12.23;4.60;;;6.40;99.90;;;;;;5071899;28;20383;-90
2022/03/27 06:42:48;;;;;;;8.87;4.60;;;7.00;99.90;;;;;;5061399;28;20040;-85
2022/03/27 06:45:18;;;;;;;17.42;5.57;;;6.30;99.90;;;;;;5056267;28;20040;-84
2022/03/27 06:47:45;;;;;;;9.63;4.38;;;6.60;99.90;;;;;;5054457;28;20170;-84
2022/03/27 06:50:12;;;;;;;12.07;4.88;;;6.60;99.90;;;;;;5035713;28;20040;-84
2022/03/27 06:52:41;;;;;;;6.72;4.10;;;6.60;99.90;;;;;;5061704;28;20087;-86
2022/03/27 06:55:10;;;;;;;12.77;4.30;;;6.60;99.90;;;;;;5072210;28;20116;-85
2022/03/27 06:57:37;;;;;;;12.43;4.75;;;6.00;99.90;;;;;;5081157;28;20402;-85
2022/03/27 07:03:10;;;;;;;11.33;5.47;;;6.60;99.90;;;;;;5080837;28;20044;-84
2022/03/27 07:05:38;;;;;;;11.43;5.13;;;6.70;99.90;;;;;;5038799;28;20693;-85
2022/03/27 07:08:08;;;;;;;10.18;4.63;;;6.70;99.90;;;;;;5069759;28;20074;-84
2022/03/27 07:10:41;;;;;;;18.73;5.93;;;6.80;99.90;;;;;;5036634;28;20128;-85
2022/03/27 07:13:09;;;;;;;10.48;5.13;;;6.40;99.90;;;;;;5080223;28;20043;-85
2022/03/27 07:15:36;;;;;;;13.60;5.65;;;6.70;99.90;;;;;;5052096;28;20179;-84
2022/03/27 07:18:02;;;;;;;;;;;6.70;99.90;;;;;;5070295;28;20045;-84
2022/03/27 07:20:30;;;;;;;11.68;4.50;;;6.80;99.90;;;;;;5080733;28;19927;-91
2022/03/27 07:22:57;;;;;;;12.65;4.85;;;6.80;99.90;;;;;;5086005;28;20052;-84
2022/03/27 07:25:26;;;;;;;12.52;5.93;;;7.20;99.90;;;;;;5063727;28;20105;-85
2022/03/27 07:27:52;;;;;;;13.43;5.10;;;6.80;99.90;;;;;;5047981;28;20051;-84
2022/03/27 07:30:18;;;;;;;13.07;5.82;;;6.80;99.90;;;;;;5049214;28;20068;-83
2022/03/27 07:32:44;;;;;;;11.27;6.13;;;6.90;99.90;;;;;;5061111;28;20076;-80
2022/03/27 07:35:12;;;;;;;8.70;5.70;;;7.00;99.90;;;;;;5054392;28;20052;-79
2022/03/27 07:37:39;;;;;;;9.35;5.07;;;7.10;99.90;;;;;;5046800;28;20045;-81
2022/03/27 07:40:08;;;;;;;15.15;5.32;;;7.40;99.90;;;;;;5055093;28;20059;-82
2022/03/27 07:42:38;;;;;;;10.73;5.72;;;7.50;99.90;;;;;;5056658;28;20119;-81
2022/03/27 07:45:05;;;;;;;10.75;5.88;;;7.60;99.90;;;;;;5041949;28;20506;-80
2022/03/27 07:47:32;;;;;;;14.65;6.22;;;7.60;99.90;;;;;;5034640;28;20049;-83
2022/03/27 07:49:59;;;;;;;8.05;5.03;;;7.60;99.90;;;;;;5060736;28;20125;-80
2022/03/27 07:52:26;;;;;;;9.50;5.15;;;7.70;99.90;;;;;;5072400;28;20041;-81
2022/03/27 07:54:52;;;;;;;10.80;6.60;;;7.90;99.90;;;;;;5079387;28;20080;-80
2022/03/27 07:57:20;;;;;;;10.93;5.03;;;8.00;99.90;;;;;;5035038;28;20400;-80
2022/03/27 07:59:47;;;;;;;14.73;5.80;;;8.00;99.90;;;;;;5019107;28;20303;-80
2022/03/27 08:02:14;;;;;;;13.80;6.25;;;8.10;99.90;;;;;;5095438;28;20087;-82
2022/03/27 08:04:40;;;;;;;16.70;6.22;;;8.30;99.90;;;;;;5068035;28;20124;-81
2022/03/27 08:07:06;;;;;;;13.17;5.40;;;8.40;99.90;;;;;;5044083;28;20051;-83
2022/03/27 08:09:32;;;;;;;12.77;4.83;;;8.50;99.90;;;;;;5081596;28;20040;-81
2022/03/27 08:11:57;;;;;;;19.90;6.77;;;8.60;99.90;;;;;;5082408;28;20136;-81
2022/03/27 08:14:28;;;;;;;14.07;5.23;;;8.60;99.90;;;;;;5059347;28;20056;-82
2022/03/27 08:16:55;;;;;;;14.82;5.88;;;8.80;99.90;;;;;;5039741;28;20048;-81
2022/03/27 08:19:21;;;;;;;13.23;5.75;;;9.10;99.90;;;;;;5053526;28;20170;-83
2022/03/27 08:21:47;;;;;;;7.80;5.47;;;9.70;99.90;;;;;;5041032;28;20127;-82
2022/03/27 08:24:17;;;;;;;11.98;6.18;;;10.10;99.90;;;;;;5059603;28;20048;-84
2022/03/27 08:27:02;;;;;;;20.98;6.43;;;10.60;99.90;;;;;;5056591;28;20078;-85
2022/03/27 08:29:34;;;;;;;17.55;6.85;;;11.20;99.90;;;;;;5056145;28;20047;-83
2022/03/27 08:32:02;;;;;;;18.50;5.65;;;11.20;99.90;;;;;;5073168;28;20074;-81
2022/03/27 08:34:37;;;;;;;12.32;5.45;;;10.80;99.90;;;;;;5069164;28;20055;-85
2022/03/27 08:37:06;;;;;;;15.18;4.80;;;10.40;99.90;;;;;;5057289;28;20055;-85
2022/03/27 08:39:32;;;;;;;16.23;6.43;;;10.50;99.90;;;;;;5071572;28;20054;-83
2022/03/27 08:41:58;;;;;;;8.15;5.07;;;10.80;99.90;;;;;;5056709;28;20231;-82
2022/03/27 08:44:27;;;;;;;13.07;6.40;;;10.90;99.90;;;;;;5069170;28;20045;-83
2022/03/27 08:46:55;;;;;;;12.02;5.50;;;11.20;99.90;;;;;;5074181;28;20052;-84
2022/03/27 08:49:32;;;;;;;13.30;5.50;;;11.60;99.90;;;;;;5051256;28;20452;-83
2022/03/27 08:52:23;;;;;;;19.45;5.55;;;11.90;99.90;;;;;;5076014;28;20048;-84
2022/03/27 08:55:06;;;;;;;14.73;5.13;;;12.40;99.90;;;;;;5052397;28;20048;-84
2022/03/27 08:57:38;;;;;;;8.15;5.47;;;12.80;99.90;;;;;;5064251;28;20102;-81
2022/03/27 09:00:05;;;;;;;8.23;4.80;;;13.00;99.90;;;;;;5086698;28;20510;-82
2022/03/27 09:02:31;;;;;;;8.82;5.95;;;13.10;99.90;;;;;;5057692;28;20047;-83
2022/03/27 09:04:59;;;;;;;18.52;6.25;;;13.00;99.90;;;;;;5077518;28;20045;-81
2022/03/27 09:07:30;;;;;;;11.50;6.10;;;12.90;99.90;;;;;;5071160;28;20048;-82
2022/03/27 09:10:00;;;;;;;10.07;4.88;;;12.90;99.90;;;;;;5075580;28;20055;-82
2022/03/27 09:12:26;;;;;;;9.82;5.68;;;12.80;99.90;;;;;;5060830;28;20076;-82
2022/03/27 09:14:52;;;;;;;11.50;5.63;;;12.90;99.90;;;;;;5053375;28;20095;-82
2022/03/27 09:17:18;;;;;;;14.33;5.63;;;13.00;99.90;;;;;;5053667;28;20079;-82
2022/03/27 09:19:49;;;;;;;13.45;5.22;;;13.00;99.90;;;;;;5057477;28;20036;-88
2022/03/27 09:22:24;;;;;;;11.32;4.60;;;13.20;99.90;;;;;;5070148;28;20044;-81
2022/03/27 09:25:04;;;;;;;13.52;4.95;;;13.20;99.90;;;;;;5068814;28;20083;-82
2022/03/27 09:27:36;;;;;;;8.02;4.57;;;13.10;99.90;;;;;;5067788;28;20134;-82
2022/03/27 09:30:11;;;;;;;9.65;4.53;;;13.20;99.90;;;;;;5059955;28;20339;-82
2022/03/27 09:32:39;;;;;;;14.07;5.68;;;13.20;99.90;;;;;;5069761;28;20052;-82
2022/03/27 09:35:06;;;;;;;14.07;5.40;;;13.20;99.90;;;;;;5075805;28;20062;-82
2022/03/27 09:37:37;;;;;;;14.88;6.50;;;13.30;99.90;;;;;;5086979;28;20050;-82
2022/03/27 09:40:08;;;;;;;6.70;4.00;;;13.60;99.90;;;;;;5090043;28;20105;-82
2022/03/27 09:42:37;;;;;;;11.30;7.32;;;13.80;99.90;;;;;;5063924;28;20048;-83
2022/03/27 09:45:21;;;;;;;12.30;4.47;;;13.90;99.90;;;;;;5065319;28;20135;-81
2022/03/27 09:47:50;;;;;;;14.85;5.47;;;14.30;99.90;;;;;;5085615;28;20036;-81
2022/03/27 09:50:38;;;;;;;7.63;4.65;;;13.80;99.90;;;;;;5082621;28;20479;-81
2022/03/27 09:53:20;;;;;;;;;;;14.70;99.90;;;;;;5067770;28;20055;-82
2022/03/27 09:56:10;;;;;;;11.95;5.05;;;14.90;99.90;;;;;;5054525;28;19920;-81
2022/03/27 09:58:40;;;;;;;12.20;4.97;;;15.10;99.90;;;;;;5051315;28;20388;-81
2022/03/27 10:01:26;;;;;;;9.65;4.55;;;15.30;99.90;;;;;;5061245;28;20049;-82
2022/03/27 10:04:02;;;;;;;7.53;4.78;;;15.30;98.90;;;;;;5067278;28;20058;-89
2022/03/27 10:06:34;;;;;;;10.77;4.40;;;15.30;99.80;;;;;;5063198;28;20395;-82
2022/03/27 10:09:02;;;;;;;15.55;5.78;;;15.30;98.30;;;;;;5058496;28;20040;-83
2022/03/27 10:11:28;;;;;;;7.18;4.05;;;15.40;98.90;;;;;;5083032;28;20037;-82
2022/03/27 10:13:55;;;;;;;10.45;4.63;;;15.40;98.40;;;;;;5065928;28;20060;-86
2022/03/27 10:16:29;;;;;;;8.23;5.75;;;15.60;98.00;;;;;;5062151;28;20048;-79
2022/03/27 10:18:59;;;;;;;8.73;4.80;;;15.70;97.10;;;;;;5074941;28;20406;-81
2022/03/27 10:21:26;;;;;;;12.73;4.30;;;15.70;96.50;;;;;;5059691;28;20075;-82
2022/03/27 10:23:59;;;;;;;17.13;4.75;;;15.70;95.20;;;;;;5065380;28;20142;-83
2022/03/27 10:26:25;;;;;;;11.95;4.85;;;15.70;93.80;;;;;;5056944;28;20050;-82
2022/03/27 10:28:51;;;;;;;9.07;4.95;;;15.90;94.20;;;;;;5050000;28;20047;-82
2022/03/27 10:31:18;;;;;;;4.88;3.78;;;16.20;93.10;;;;;;5060790;28;20036;-82
2022/03/27 10:33:46;;;;;;;7.78;4.20;;;16.40;92.40;;;;;;5067492;28;20075;-82
2022/03/27 10:36:33;;;;;;;9.10;4.38;;;16.50;91.70;;;;;;5059379;28;20045;-83
2022/03/27 10:39:08;;;;;;;7.03;4.38;;;16.50;86.40;;;;;;5077819;28;20043;-86
2022/03/27 10:42:08;;;;;;;4.07;3.38;;;16.50;86.10;;;;;;5076581;28;20044;-81
2022/03/27 10:44:45;;;;;;;6.10;3.53;;;16.50;86.80;;;;;;5076368;28;20078;-84
2022/03/27 10:47:18;;;;;;;7.60;4.68;;;16.40;87.50;;;;;;5065282;28;20049;-82
2022/03/27 10:50:05;;;;;;;10.40;4.85;;;16.40;87.00;;;;;;5035976;28;20052;-82
2022/03/27 10:52:34;;;;;;;6.45;3.88;;;16.20;83.60;;;;;;5079862;28;20044;-83
2022/03/27 10:55:06;;;;;;;5.05;3.45;;;16.30;87.60;;;;;;5047173;28;20049;-88
2022/03/27 10:57:34;;;;;;;13.82;4.13;;;16.40;85.20;;;;;;5098455;28;21612;-82
2022/03/27 11:00:01;;;;;;;11.32;4.05;;;16.30;85.90;;;;;;5056593;28;20088;-88
2022/03/27 11:02:46;;;;;;;11.48;4.68;;;16.30;86.30;;;;;;5058857;28;20049;-82
2022/03/27 11:05:36;;;;;;;5.93;3.50;;;16.20;82.30;;;;;;5054833;28;20049;-82
2022/03/27 11:08:17;;;;;;;5.80;3.85;;;16.30;81.80;;;;;;5085975;28;20041;-84
2022/03/27 11:10:51;;;;;;;8.20;4.45;;;16.30;82.70;;;;;;5062972;28;20041;-81
2022/03/27 11:13:27;;;;;;;7.90;4.22;;;16.50;83.20;;;;;;5074158;28;20083;-81
2022/03/27 11:16:02;;;;;;;6.70;3.53;;;16.60;79.50;;;;;;5098649;28;20055;-82
2022/03/27 11:18:36;;;;;;;10.82;4.07;;;16.60;78.80;;;;;;5059055;28;20045;-84
2022/03/27 11:21:03;;;;;;;10.23;3.60;;;16.80;80.00;;;;;;5062015;28;20107;-87
2022/03/27 11:23:31;;;;;;;6.13;3.47;;;16.30;80.50;;;;;;5050002;28;20054;-83
2022/03/27 11:25:59;;;;;;;7.00;3.60;;;16.80;80.80;;;;;;5087409;28;20123;-82
2022/03/27 11:28:37;;;;;;;11.95;5.40;;;16.80;80.60;;;;;;5071791;28;20498;-82
2022/03/27 11:31:08;;;;;;;4.80;3.50;;;16.90;79.60;;;;;;5072003;28;20044;-85
2022/03/27 11:33:35;;;;;;;8.88;4.05;;;16.80;76.70;;;;;;5079784;28;20044;-81
2022/03/27 11:36:00;;;;;;;14.00;3.92;;;17.00;78.70;;;;;;5026031;28;20152;-82
2022/03/27 11:38:47;;;;;;;8.87;3.90;;;17.20;77.50;;;;;;5064595;28;20546;-81
2022/03/27 11:41:25;;;;;;;9.40;3.53;;;17.00;76.40;;;;;;5039345;28;20299;-81
2022/03/27 11:43:53;;;;;;;7.18;3.15;;;17.30;71.50;;;;;;5054141;28;20052;-81
2022/03/27 11:46:22;;;;;;;5.10;3.25;;;17.50;73.20;;;;;;5053487;28;20105;-81
2022/03/27 11:48:55;;;;;;;8.30;3.78;;;17.50;71.40;;;;;;5059745;28;20491;-81
2022/03/27 11:51:24;;;;;;;7.28;3.63;;;17.60;69.90;;;;;;5070792;28;20048;-81
2022/03/27 11:53:51;;;;;;;9.68;3.80;;;17.90;70.80;;;;;;5063092;28;20060;-81
2022/03/27 11:56:17;;;;;;;3.72;2.53;;;18.10;69.10;;;;;;5033073;28;20040;-81
2022/03/27 11:58:43;;;;;;;9.57;2.85;;;18.30;66.90;;;;;;5078914;28;20075;-81
2022/03/27 12:01:09;;;;;;;9.30;2.90;;;18.40;64.80;;;;;;5054076;28;20056;-85
2022/03/27 12:03:37;;;;;;;7.57;2.45;;;18.60;64.70;;;;;;5052023;28;20056;-81
2022/03/27 12:06:09;;;;;;;7.80;2.95;;;18.60;64.30;;;;;;5069330;28;20106;-81
2022/03/27 12:08:37;;;;;;;10.63;4.00;;;18.70;63.70;;;;;;5054297;28;20044;-81
2022/03/27 12:11:06;;;;;;;5.82;3.67;;;18.90;63.00;;;;;;5054315;28;20044;-81
2022/03/27 12:13:50;;;;;;;9.27;3.60;;;19.20;62.70;;;;;;5064051;28;20201;-82
2022/03/27 12:16:25;;;;;;;7.70;3.05;;;19.40;58.30;;;;;;5052768;28;20044;-83
2022/03/27 12:18:53;;;;;;;4.00;2.25;;;19.40;58.10;;;;;;5085509;28;20044;-81
2022/03/27 12:21:20;;;;;;;6.95;2.50;;;19.20;60.00;;;;;;5055674;28;20048;-84
2022/03/27 12:24:05;;;;;;;6.88;3.13;;;19.20;59.60;;;;;;5062175;28;20036;-83
2022/03/27 12:29:40;;;;;;;3.45;2.80;;;19.20;55.50;;;;;;5068213;28;20082;-84
2022/03/27 12:32:25;;;;;;;9.10;3.22;;;19.10;57.90;;;;;;5076505;28;20105;-88
2022/03/27 12:34:56;;;;;;;3.10;2.42;;;19.00;53.70;;;;;;5054415;28;20051;-84
2022/03/27 12:37:24;;;;;;;10.07;2.80;;;18.90;57.30;;;;;;5074281;28;20072;-85
2022/03/27 12:39:50;;;;;;;4.75;2.03;;;18.80;56.50;;;;;;5066360;28;20048;-88
2022/03/27 12:42:37;;;;;;;4.80;2.33;;;18.80;56.00;;;;;;5071145;28;20097;-87
2022/03/27 12:45:14;;;;;;;5.75;3.65;;;18.90;50.90;;;;;;5047695;28;20295;-81
2022/03/27 12:47:45;;;;;;;6.05;2.60;;;19.20;51.40;;;;;;5079930;28;20051;-79
2022/03/27 12:50:14;;;;;;;3.90;2.17;;;19.50;52.10;;;;;;5070919;28;20063;-82
2022/03/27 12:52:52;;;;;;;4.45;2.10;;;19.60;52.20;;;;;;5061524;28;20043;-82
2022/03/27 12:55:20;;;;;;;3.20;2.25;;;19.90;51.40;;;;;;5071796;28;20032;-88
2022/03/27 12:58:16;;;;;;;;;;;;;;;;;;;;;
2022/03/27 13:01:27;;;;;;;4.25;2.67;;;19.70;49.60;;;;;;5069226;28;20057;-87
2022/03/27 13:04:07;;;;;;;10.15;2.28;;;19.70;48.30;;;;;;5054630;28;20045;-87
2022/03/27 13:06:42;;;;;;;5.53;2.10;;;19.60;48.60;;;;;;5071208;28;20146;-87
2022/03/27 13:09:22;;;;;;;4.30;1.85;;;19.60;51.20;;;;;;5041801;28;20044;-87
2022/03/27 13:12:04;;;;;;;6.28;2.22;;;20.10;50.50;;;;;;5074684;28;20036;-87
2022/03/27 13:14:50;;;;;;;4.63;2.03;;;19.70;50.50;;;;;;5039410;28;20560;-87